createdAt,value
2023-04-02T00:02:23.095Z,99338.09
2023-04-02T00:05:19.444Z,99336.53
2023-04-02T00:07:51.239Z,99339.88
2023-04-02T00:10:39.060Z,99348.31
2023-04-02T00:13:13.686Z,99353.47
2023-04-02T00:15:44.391Z,99351.38
2023-04-02T00:18:18.357Z,99364.75
2023-04-02T00:20:50.987Z,99367.41
2023-04-02T00:23:17.539Z,99380.78
2023-04-02T00:25:45.808Z,99386.88
2023-04-02T00:28:22.746Z,99378.03
2023-04-02T00:30:54.031Z,99391.88
2023-04-02T00:33:27.031Z,99398.75
2023-04-02T00:35:55.355Z,99402.50
2023-04-02T00:38:32.316Z,99411.59
2023-04-02T00:41:03.031Z,99409.72
2023-04-02T00:43:33.051Z,99422.97
2023-04-02T00:46:10.787Z,99419.16
2023-04-02T00:48:49.242Z,99424.56
2023-04-02T00:51:37.037Z,99425.13
2023-04-02T00:54:09.673Z,99429.69
2023-04-02T00:56:47.407Z,99442.41
2023-04-02T01:00:00.157Z,99443.81
2023-04-02T01:02:29.686Z,99450.03
2023-04-02T01:05:02.182Z,99445.28
2023-04-02T01:07:43.351Z,99460.09
2023-04-02T01:10:33.916Z,99460.69
2023-04-02T01:13:22.382Z,99466.06
2023-04-02T01:16:03.281Z,99472.66
2023-04-02T01:18:46.404Z,99473.94
2023-04-02T01:21:34.753Z,99477.91
2023-04-02T01:24:13.667Z,99475.13
2023-04-02T01:26:53.791Z,99480.75
2023-04-02T01:29:33.502Z,99488.94
2023-04-02T01:32:10.364Z,99495.41
2023-04-02T01:34:38.706Z,99510.69
2023-04-02T01:37:32.345Z,99503.66
2023-04-02T01:40:31.184Z,99519.25
2023-04-02T01:43:09.752Z,99526.56
2023-04-02T01:45:37.715Z,99528.63
2023-04-02T01:48:17.862Z,99537.00
2023-04-02T01:50:45.884Z,99541.09
2023-04-02T01:53:15.060Z,99540.06
2023-04-02T01:55:54.368Z,99549.19
2023-04-02T01:58:27.174Z,99551.41
2023-04-02T02:01:02.384Z,99557.63
2023-04-02T02:03:29.799Z,99564.06
2023-04-02T02:05:57.181Z,99564.84
2023-04-02T02:08:53.387Z,99574.47
2023-04-02T02:11:26.626Z,99576.69
2023-04-02T02:14:17.209Z,99582.13
2023-04-02T02:16:45.792Z,99589.66
2023-04-02T02:19:24.353Z,99589.94
2023-04-02T02:21:54.793Z,99596.91
2023-04-02T02:24:28.908Z,99601.53
2023-04-02T02:27:22.961Z,99603.31
2023-04-02T02:29:51.823Z,99612.13
2023-04-02T02:32:22.620Z,99611.03
2023-04-02T02:34:59.118Z,99620.75
2023-04-02T02:37:30.730Z,99622.81
2023-04-02T02:40:01.321Z,99631.25
2023-04-02T02:42:39.657Z,99625.69
2023-04-02T02:45:13.047Z,99639.75
2023-04-02T02:47:42.275Z,99641.28
2023-04-02T02:50:18.213Z,99645.75
2023-04-02T02:52:51.226Z,99654.03
2023-04-02T02:55:22.364Z,99656.25
2023-04-02T02:57:59.070Z,99666.75
2023-04-02T03:00:26.583Z,99666.31
2023-04-02T03:02:56.575Z,99668.19
2023-04-02T03:05:26.179Z,99669.13
2023-04-02T03:07:53.909Z,99678.19
2023-04-02T03:10:29.798Z,99681.06
2023-04-02T03:13:15.012Z,99692.75
2023-04-02T03:15:50.643Z,99692.06
2023-04-02T03:18:37.396Z,99701.63
2023-04-02T03:21:30.217Z,99707.09
2023-04-02T03:24:05.775Z,99715.31
2023-04-02T03:26:35.281Z,99719.47
2023-04-02T03:29:24.997Z,99720.69
2023-04-02T03:31:59.659Z,99729.19
2023-04-02T03:34:38.128Z,99742.50
2023-04-02T03:37:22.880Z,99744.44
2023-04-02T03:40:10.145Z,99754.25
2023-04-02T03:42:46.336Z,99756.94
2023-04-02T03:45:20.245Z,99765.66
2023-04-02T03:48:04.300Z,99769.47
2023-04-02T03:51:02.928Z,99777.63
2023-04-02T03:53:32.161Z,99779.41
2023-04-02T03:56:00.706Z,99798.84
2023-04-02T03:58:49.371Z,99797.13
2023-04-02T04:01:53.859Z,99806.06
2023-04-02T04:04:25.025Z,99801.84
2023-04-02T04:06:52.844Z,99809.78
2023-04-02T04:09:37.031Z,99817.47
2023-04-02T04:12:25.286Z,99827.25
2023-04-02T04:15:02.360Z,99829.22
2023-04-02T04:17:51.488Z,99838.00
2023-04-02T04:20:21.870Z,99845.53
2023-04-02T04:22:50.410Z,99849.16
2023-04-02T04:25:34.007Z,99859.19
2023-04-02T04:28:26.598Z,99855.06
2023-04-02T04:31:00.397Z,99861.41
2023-04-02T04:33:39.479Z,99874.50
2023-04-02T04:36:19.250Z,99873.03
2023-04-02T04:38:55.548Z,99882.78
2023-04-02T04:41:28.143Z,99891.06
2023-04-02T04:44:14.524Z,99891.59
2023-04-02T04:46:47.432Z,99906.25
2023-04-02T04:49:25.084Z,99909.34
2023-04-02T04:51:57.466Z,99913.03
2023-04-02T04:54:27.837Z,99915.63
2023-04-02T04:57:03.840Z,99917.47
2023-04-02T04:59:45.834Z,99927.31
2023-04-02T05:02:16.154Z,99937.28
2023-04-02T05:04:48.583Z,99940.09
2023-04-02T05:07:31.907Z,99941.81
2023-04-02T05:10:13.268Z,99962.25
2023-04-02T05:12:52.887Z,99963.22
2023-04-02T05:15:23.222Z,99972.78
2023-04-02T05:17:59.650Z,99974.81
2023-04-02T05:20:40.814Z,99976.97
2023-04-02T05:23:27.587Z,99990.19
2023-04-02T05:26:17.193Z,99997.91
2023-04-02T05:29:12.432Z,99993.59
2023-04-02T05:31:50.449Z,100000.88
2023-04-02T05:34:25.641Z,100010.88
2023-04-02T05:36:52.213Z,100010.16
2023-04-02T05:39:23.176Z,100018.06
2023-04-02T05:42:01.276Z,100027.91
2023-04-02T05:44:31.274Z,100027.41
2023-04-02T05:47:06.710Z,100040.63
2023-04-02T05:49:39.392Z,100041.44
2023-04-02T05:52:12.004Z,100046.84
2023-04-02T05:54:47.700Z,100054.13
2023-04-02T05:57:17.302Z,100061.97
2023-04-02T05:59:50.745Z,100066.84
2023-04-02T06:02:39.301Z,100063.75
2023-04-02T06:05:15.839Z,100075.94
2023-04-02T06:07:48.299Z,100079.06
2023-04-02T06:10:24.777Z,100078.88
2023-04-02T06:13:03.758Z,100091.13
2023-04-02T06:15:32.853Z,100102.25
2023-04-02T06:18:00.702Z,100105.44
2023-04-02T06:20:28.430Z,100109.38
2023-04-02T06:23:11.661Z,100108.03
2023-04-02T06:26:00.255Z,100116.97
2023-04-02T06:28:40.414Z,100124.41
2023-04-02T06:31:18.367Z,100123.97
2023-04-02T06:33:44.943Z,100133.53
2023-04-02T06:36:12.575Z,100143.50
2023-04-02T06:38:40.878Z,100149.41
2023-04-02T06:41:17.493Z,100152.16
2023-04-02T06:44:09.260Z,100148.84
2023-04-02T06:46:59.042Z,100166.28
2023-04-02T06:49:55.596Z,100157.88
2023-04-02T06:52:37.356Z,100181.22
2023-04-02T06:55:28.412Z,100177.13
2023-04-02T06:57:54.966Z,100181.44
2023-04-02T07:00:43.310Z,100190.19
2023-04-02T07:03:31.585Z,100191.28
2023-04-02T07:06:00.980Z,100201.78
2023-04-02T07:08:27.491Z,100205.22
2023-04-02T07:10:54.682Z,100209.72
2023-04-02T07:13:23.437Z,100215.59
2023-04-02T07:15:54.975Z,100223.44
2023-04-02T07:18:33.672Z,100219.09
2023-04-02T07:21:00.411Z,100220.25
2023-04-02T07:23:27.245Z,100225.72
2023-04-02T07:25:55.330Z,100219.63
2023-04-02T07:28:23.075Z,100226.91
2023-04-02T07:30:51.241Z,100238.13
2023-04-02T07:33:20.558Z,100245.66
2023-04-02T07:35:48.258Z,100249.16
2023-04-02T07:38:14.838Z,100252.28
2023-04-02T07:40:41.585Z,100255.19
2023-04-02T07:43:08.389Z,100259.31
2023-04-02T07:45:35.994Z,100268.03
2023-04-02T07:48:06.972Z,100272.38
2023-04-02T07:50:34.070Z,100280.22
2023-04-02T07:53:01.057Z,100277.81
2023-04-02T07:55:27.614Z,100281.28
2023-04-02T07:57:56.300Z,100285.50
2023-04-02T08:00:24.297Z,100291.44
2023-04-02T08:02:51.413Z,100290.63
2023-04-02T08:05:18.602Z,100299.13
2023-04-02T08:07:53.794Z,100299.56
2023-04-02T08:10:20.631Z,100306.78
2023-04-02T08:12:47.166Z,100310.03
2023-04-02T08:15:15.781Z,100312.66
2023-04-02T08:17:43.383Z,100322.69
2023-04-02T08:20:18.991Z,100326.00
2023-04-02T08:22:46.855Z,100330.25
2023-04-02T08:25:13.530Z,100338.13
2023-04-02T08:27:40.109Z,100335.13
2023-04-02T08:30:08.815Z,100340.25
2023-04-02T08:32:35.579Z,100335.13
2023-04-02T08:35:02.676Z,100342.09
2023-04-02T08:37:29.308Z,100348.34
2023-04-02T08:39:55.825Z,100354.72
2023-04-02T08:42:33.171Z,100354.75
2023-04-02T08:45:25.134Z,100368.44
2023-04-02T08:47:56.626Z,100369.88
2023-04-02T08:50:32.178Z,100371.47
2023-04-02T08:53:00.532Z,100371.63
2023-04-02T08:55:47.862Z,100387.56
2023-04-02T08:58:27.850Z,100385.88
2023-04-02T09:00:57.785Z,100376.84
2023-04-02T09:03:42.660Z,100386.38
2023-04-02T09:06:15.353Z,100394.94
2023-04-02T09:08:46.208Z,100387.97
2023-04-02T09:11:12.602Z,100389.66
2023-04-02T09:13:46.533Z,100401.75
2023-04-02T09:16:16.415Z,100405.16
2023-04-02T09:18:45.055Z,100409.03
2023-04-02T09:21:20.906Z,100411.09
2023-04-02T09:23:49.175Z,100416.50
2023-04-02T09:26:23.692Z,100425.22
2023-04-02T09:29:01.075Z,100427.25
2023-04-02T09:31:37.622Z,100432.41
2023-04-02T09:34:34.127Z,100442.16
2023-04-02T09:37:19.035Z,100444.06
2023-04-02T09:39:45.782Z,100459.69
2023-04-02T09:42:36.297Z,100452.72
2023-04-02T09:45:38.487Z,100459.38
2023-04-02T09:48:24.016Z,100465.56
2023-04-02T09:50:50.612Z,100475.63
2023-04-02T09:53:29.423Z,100482.03
2023-04-02T09:56:11.556Z,100485.69
2023-04-02T09:58:38.822Z,100491.66
2023-04-02T10:01:05.554Z,100498.22
2023-04-02T10:03:33.141Z,100496.13
2023-04-02T10:06:05.596Z,100503.81
2023-04-02T10:08:32.898Z,100507.53
2023-04-02T10:11:07.610Z,100506.75
2023-04-02T10:13:57.588Z,100513.16
2023-04-02T10:16:47.370Z,100511.25
2023-04-02T10:19:36.306Z,100514.97
2023-04-02T10:22:13.684Z,100527.63
2023-04-02T10:24:43.561Z,100526.50
2023-04-02T10:27:42.227Z,100528.25
2023-04-02T10:30:14.571Z,100537.94
2023-04-02T10:32:44.625Z,100539.38
2023-04-02T10:35:25.211Z,100542.56
2023-04-02T10:38:19.202Z,100549.09
2023-04-02T10:40:53.650Z,100553.88
2023-04-02T10:43:50.039Z,100553.19
2023-04-02T10:46:43.753Z,100557.28
2023-04-02T10:49:28.945Z,100557.41
2023-04-02T10:52:07.654Z,100552.66
2023-04-02T10:54:45.528Z,100562.41
2023-04-02T10:57:22.331Z,100572.16
2023-04-02T10:59:59.789Z,100567.13
2023-04-02T11:02:34.086Z,100581.41
2023-04-02T11:05:11.819Z,100582.13
2023-04-02T11:07:52.301Z,100584.66
2023-04-02T11:10:21.326Z,100587.88
2023-04-02T11:12:57.855Z,100589.91
2023-04-02T11:15:25.513Z,100589.41
2023-04-02T11:17:52.289Z,100594.94
2023-04-02T11:20:44.142Z,100598.44
2023-04-02T11:23:12.881Z,100599.94
2023-04-02T11:25:41.335Z,100596.47
2023-04-02T11:28:30.857Z,100608.38
2023-04-02T11:30:58.439Z,100608.81
2023-04-02T11:33:38.221Z,100611.50
2023-04-02T11:36:44.370Z,100615.78
2023-04-02T11:39:17.367Z,100625.22
2023-04-02T11:42:17.935Z,100619.97
2023-04-02T11:44:44.846Z,100628.34
2023-04-02T11:47:15.509Z,100628.91
2023-04-02T11:50:04.397Z,100622.69
2023-04-02T11:52:51.138Z,100638.69
2023-04-02T11:55:25.161Z,100636.50
2023-04-02T11:58:02.357Z,100628.78
2023-04-02T12:01:26.302Z,100630.22
2023-04-02T12:04:32.646Z,100637.03
2023-04-02T12:07:26.593Z,100639.38
2023-04-02T12:09:59.258Z,100644.31
2023-04-02T12:12:38.233Z,100645.09
2023-04-02T12:15:24.527Z,100643.56
2023-04-02T12:17:51.230Z,100655.22
2023-04-02T12:20:22.931Z,100649.41
2023-04-02T12:22:54.951Z,100651.03
2023-04-02T12:25:23.796Z,100660.09
2023-04-02T12:28:09.466Z,100673.19
2023-04-02T12:30:39.697Z,100673.91
2023-04-02T12:33:27.791Z,100667.31
2023-04-02T12:36:01.564Z,100672.69
2023-04-02T12:38:46.391Z,100677.34
2023-04-02T12:41:27.403Z,100677.28
2023-04-02T12:44:02.236Z,100681.22
2023-04-02T12:46:31.160Z,100676.41
2023-04-02T12:49:39.796Z,100684.09
2023-04-02T12:52:11.780Z,100678.31
2023-04-02T12:54:44.972Z,100688.41
2023-04-02T12:57:26.880Z,100682.88
2023-04-02T12:59:55.660Z,100687.13
2023-04-02T13:02:30.991Z,100690.25
2023-04-02T13:05:01.916Z,100691.63
2023-04-02T13:07:33.763Z,100688.50
2023-04-02T13:10:22.989Z,100693.34
2023-04-02T13:12:58.674Z,100700.25
2023-04-02T13:15:26.602Z,100697.72
2023-04-02T13:18:12.378Z,100700.25
2023-04-02T13:20:41.199Z,100702.69
2023-04-02T13:23:29.793Z,100706.03
2023-04-02T13:25:58.633Z,100703.38
2023-04-02T13:28:25.595Z,100720.34
2023-04-02T13:30:52.155Z,100725.22
2023-04-02T13:33:20.489Z,100726.41
2023-04-02T13:35:47.135Z,100717.72
2023-04-02T13:38:13.850Z,100727.00
2023-04-02T13:40:40.484Z,100729.78
2023-04-02T13:43:15.718Z,100738.06
2023-04-02T13:45:43.037Z,100743.03
2023-04-02T13:48:14.517Z,100747.44
2023-04-02T13:50:41.344Z,100747.19
2023-04-02T13:53:12.968Z,100754.03
2023-04-02T13:55:42.610Z,100758.53
2023-04-02T13:58:11.499Z,100756.72
2023-04-02T14:00:38.334Z,100759.31
2023-04-02T14:03:14.391Z,100768.69
2023-04-02T14:06:07.039Z,100770.03
2023-04-02T14:08:41.078Z,100774.66
2023-04-02T14:11:29.021Z,100785.06
2023-04-02T14:14:06.653Z,100787.25
2023-04-02T14:16:39.253Z,100776.56
2023-04-02T14:19:24.965Z,100782.59
2023-04-02T14:22:16.310Z,100791.69
2023-04-02T14:25:28.401Z,100789.75
2023-04-02T14:28:04.264Z,100791.59
2023-04-02T14:30:40.104Z,100790.44
2023-04-02T14:33:17.731Z,100797.69
2023-04-02T14:35:48.023Z,100805.53
2023-04-02T14:38:41.273Z,100805.81
2023-04-02T14:41:17.273Z,100804.28
2023-04-02T14:44:11.484Z,100806.22
2023-04-02T14:46:38.538Z,100809.66
2023-04-02T14:49:17.263Z,100809.16
2023-04-02T14:51:59.099Z,100822.28
2023-04-02T14:54:37.772Z,100819.38
2023-04-02T14:57:12.303Z,100825.56
2023-04-02T15:00:05.027Z,100824.47
2023-04-02T15:02:35.514Z,100822.81
2023-04-02T15:05:20.263Z,100825.63
2023-04-02T15:07:56.624Z,100822.38
2023-04-02T15:10:31.494Z,100826.59
2023-04-02T15:13:00.185Z,100827.38
2023-04-02T15:15:40.856Z,100823.72
2023-04-02T15:18:16.859Z,100829.06
2023-04-02T15:20:48.596Z,100829.88
2023-04-02T15:23:39.826Z,100833.41
2023-04-02T15:26:29.628Z,100834.53
2023-04-02T15:29:29.042Z,100841.44
2023-04-02T15:32:17.484Z,100838.06
2023-04-02T15:34:47.021Z,100837.53
2023-04-02T15:37:19.810Z,100845.56
2023-04-02T15:40:14.155Z,100847.31
2023-04-02T15:42:48.404Z,100847.50
2023-04-02T15:45:25.795Z,100848.41
2023-04-02T15:48:20.062Z,100852.47
2023-04-02T15:50:49.536Z,100855.38
2023-04-02T15:53:48.384Z,100858.88
2023-04-02T15:56:32.303Z,100862.09
2023-04-02T15:59:29.571Z,100860.69
2023-04-02T16:02:14.827Z,100877.09
2023-04-02T16:05:11.228Z,100874.59
2023-04-02T16:07:40.843Z,100870.31
2023-04-02T16:10:40.889Z,100880.00
2023-04-02T16:13:27.019Z,100881.69
2023-04-02T16:16:15.447Z,100886.25
2023-04-02T16:18:49.830Z,100886.94
2023-04-02T16:21:21.200Z,100888.50
2023-04-02T16:23:48.342Z,100894.91
2023-04-02T16:26:21.968Z,100892.94
2023-04-02T16:29:20.731Z,100897.19
2023-04-02T16:32:06.122Z,100901.72
2023-04-02T16:35:38.199Z,100902.41
2023-04-02T16:38:33.875Z,100904.06
2023-04-02T16:41:27.694Z,100923.47
2023-04-02T16:44:00.230Z,100920.97
2023-04-02T16:46:40.541Z,100923.81
2023-04-02T16:49:36.086Z,100929.03
2023-04-02T16:52:27.956Z,100929.91
2023-04-02T16:55:12.730Z,100927.34
2023-04-02T16:58:26.593Z,100931.81
2023-04-02T17:01:18.735Z,100933.63
2023-04-02T17:03:51.695Z,100930.16
2023-04-02T17:06:21.241Z,100941.66
2023-04-02T17:08:53.744Z,100942.56
2023-04-02T17:11:29.130Z,100938.66
2023-04-02T17:14:12.310Z,100943.03
2023-04-02T17:16:42.574Z,100951.94
2023-04-02T17:19:15.478Z,100950.06
2023-04-02T17:21:48.528Z,100959.91
2023-04-02T17:24:26.204Z,100956.25
2023-04-02T17:27:05.364Z,100970.34
2023-04-02T17:29:38.049Z,100968.91
2023-04-02T17:32:12.122Z,100971.22
2023-04-02T17:34:38.828Z,100966.44
2023-04-02T17:37:38.992Z,100970.31
2023-04-02T17:40:22.858Z,100974.03
2023-04-02T17:43:13.837Z,100975.75
2023-04-02T17:45:51.501Z,100975.78
2023-04-02T17:48:27.618Z,100980.31
2023-04-02T17:51:30.440Z,100979.69
2023-04-02T17:54:11.826Z,100977.91
2023-04-02T17:57:06.240Z,100978.25
2023-04-02T17:59:49.032Z,100983.72
2023-04-02T18:02:42.552Z,100982.19
2023-04-02T18:05:12.188Z,100988.91
2023-04-02T18:07:41.791Z,100994.91
2023-04-02T18:10:23.535Z,101001.84
2023-04-02T18:12:57.082Z,101006.50
2023-04-02T18:15:41.653Z,100997.91
2023-04-02T18:18:43.344Z,101003.69
2023-04-02T18:21:10.039Z,101014.03
2023-04-02T18:23:55.459Z,101015.06
2023-04-02T18:26:34.406Z,101017.28
2023-04-02T18:29:16.705Z,101015.13
2023-04-02T18:31:57.677Z,101021.63
2023-04-02T18:34:45.285Z,101022.38
2023-04-02T18:37:24.018Z,101032.66
2023-04-02T18:40:18.842Z,101039.56
2023-04-02T18:43:10.084Z,101033.69
2023-04-02T18:45:42.548Z,101034.75
2023-04-02T18:48:34.071Z,101049.75
2023-04-02T18:51:02.131Z,101047.59
2023-04-02T18:53:32.576Z,101050.25
2023-04-02T18:56:06.389Z,101055.50
2023-04-02T18:58:49.373Z,101063.38
2023-04-02T19:01:21.283Z,101062.56
2023-04-02T19:03:53.208Z,101066.91
2023-04-02T19:06:35.117Z,101063.47
2023-04-02T19:09:06.741Z,101065.44
2023-04-02T19:11:33.702Z,101076.38
2023-04-02T19:14:02.496Z,101071.56
2023-04-02T19:16:41.174Z,101074.94
2023-04-02T19:19:27.962Z,101079.06
2023-04-02T19:22:19.443Z,101079.06
2023-04-02T19:25:04.652Z,101084.53
2023-04-02T19:27:42.777Z,101080.09
2023-04-02T19:30:27.281Z,101089.56
2023-04-02T19:33:13.439Z,101091.41
2023-04-02T19:35:49.208Z,101094.19
2023-04-02T19:38:36.928Z,101094.91
2023-04-02T19:41:31.346Z,101090.88
2023-04-02T19:44:00.818Z,101094.31
2023-04-02T19:46:27.503Z,101100.59
2023-04-02T19:49:10.429Z,101096.19
2023-04-02T19:51:37.022Z,101103.00
2023-04-02T19:54:04.215Z,101098.66
2023-04-02T19:56:30.884Z,101099.78
2023-04-02T19:58:58.286Z,101101.84
2023-04-02T20:01:26.703Z,101105.63
2023-04-02T20:03:53.441Z,101108.28
2023-04-02T20:06:20.036Z,101100.38
2023-04-02T20:08:46.896Z,101102.13
2023-04-02T20:11:13.745Z,101104.78
2023-04-02T20:13:40.387Z,101111.88
2023-04-02T20:16:07.855Z,101109.00
2023-04-02T20:18:34.459Z,101115.91
2023-04-02T20:21:05.108Z,101117.78
2023-04-02T20:23:31.715Z,101123.13
2023-04-02T20:25:58.340Z,101108.06
2023-04-02T20:28:26.927Z,101115.88
2023-04-02T20:30:53.738Z,101121.13
2023-04-02T20:33:23.533Z,101123.66
2023-04-02T20:35:54.624Z,101124.59
2023-04-02T20:38:21.154Z,101126.41
2023-04-02T20:40:52.836Z,101136.84
2023-04-02T20:43:19.433Z,101130.66
2023-04-02T20:45:55.191Z,101139.47
2023-04-02T20:48:23.331Z,101137.63
2023-04-02T20:50:49.928Z,101134.13
2023-04-02T20:53:17.577Z,101144.59
2023-04-02T20:55:45.854Z,101141.09
2023-04-02T20:58:17.322Z,101146.31
2023-04-02T21:00:45.360Z,101151.56
2023-04-02T21:03:11.950Z,101150.69
2023-04-02T21:05:45.450Z,101156.00
2023-04-02T21:08:12.292Z,101155.81
2023-04-02T21:10:39.544Z,101151.56
2023-04-02T21:13:06.613Z,101153.25
2023-04-02T21:15:33.615Z,101155.03
2023-04-02T21:18:00.636Z,101164.69
2023-04-02T21:20:27.195Z,101163.78
2023-04-02T21:22:53.993Z,101158.50
2023-04-02T21:25:20.518Z,101167.28
2023-04-02T21:27:47.031Z,101169.97
2023-04-02T21:30:13.745Z,101162.25
2023-04-02T21:32:40.262Z,101170.03
2023-04-02T21:35:08.746Z,101172.69
2023-04-02T21:37:35.299Z,101177.09
2023-04-02T21:40:01.864Z,101178.00
2023-04-02T21:42:29.075Z,101177.97
2023-04-02T21:44:56.052Z,101178.06
2023-04-02T21:47:23.724Z,101177.25
2023-04-02T21:49:50.394Z,101173.78
2023-04-02T21:52:16.912Z,101174.75
2023-04-02T21:54:43.434Z,101178.16
2023-04-02T21:57:09.998Z,101180.84
2023-04-02T21:59:36.611Z,101184.38
2023-04-02T22:02:04.852Z,101181.78
2023-04-02T22:04:33.339Z,101194.06
2023-04-02T22:07:00.029Z,101191.47
2023-04-02T22:09:30.641Z,101195.88
2023-04-02T22:12:02.274Z,101202.06
2023-04-02T22:14:29.231Z,101203.88
2023-04-02T22:16:57.920Z,101200.47
2023-04-02T22:19:24.599Z,101210.97
2023-04-02T22:21:51.742Z,101211.97
2023-04-02T22:24:21.314Z,101204.91
2023-04-02T22:26:48.955Z,101208.53
2023-04-02T22:29:15.824Z,101213.81
2023-04-02T22:31:43.422Z,101210.41
2023-04-02T22:34:10.000Z,101211.22
2023-04-02T22:36:36.559Z,101211.22
2023-04-02T22:39:06.774Z,101216.50
2023-04-02T22:41:33.574Z,101221.81
2023-04-02T22:44:01.278Z,101225.41
2023-04-02T22:46:28.698Z,101233.38
2023-04-02T22:48:56.024Z,101230.72
2023-04-02T22:51:23.866Z,101232.75
2023-04-02T22:53:53.581Z,101242.25
2023-04-02T22:56:23.324Z,101240.75
2023-04-02T22:58:50.417Z,101240.53
2023-04-02T23:01:16.928Z,101246.63
2023-04-02T23:03:43.921Z,101258.94
2023-04-02T23:06:12.996Z,101250.44
2023-04-02T23:08:39.930Z,101246.81
2023-04-02T23:11:09.843Z,101259.13
2023-04-02T23:13:36.966Z,101256.56
2023-04-02T23:16:06.209Z,101260.22
2023-04-02T23:18:34.920Z,101260.94
2023-04-02T23:21:01.653Z,101270.69
2023-04-02T23:23:28.331Z,101261.91
2023-04-02T23:26:09.978Z,101270.78
2023-04-02T23:28:37.716Z,101268.47
2023-04-02T23:31:06.934Z,101268.28
2023-04-02T23:33:34.485Z,101269.19
2023-04-02T23:36:09.876Z,101270.19
2023-04-02T23:38:36.616Z,101267.72
2023-04-02T23:41:03.403Z,101270.34
2023-04-02T23:43:30.079Z,101270.53
2023-04-02T23:45:56.783Z,101273.91
2023-04-02T23:48:23.480Z,101278.47
2023-04-02T23:50:50.092Z,101280.16
2023-04-02T23:53:16.744Z,101270.84
2023-04-02T23:55:43.343Z,101279.47
2023-04-02T23:58:09.925Z,101289.03
